Philadelphia, Pennsylvania
Traffic Map
Current Weather Conditions
Philadelphia, Pennsylvania
Clear
Clear
49°
Feels Like: 47°
Wind Chill: 47° Ceiling: Unl
Heat Index: 49° Visibility: 10mi
Dew Point: 36° Wind: 6mph
Humidity: 61% Direction: 250° (WSW)
Pressure: 29.92in Gusts: 0mph
Raw Report DataKPHL 250954Z 25005KT 10SM CLR 09/02 A2992 RMK AO2 SLP131 T00940022
Traffic Incident Summary
Active as of:
Severity:
Category:
InformationThere was an issue retrieving the traffic information for this location. Please try a different location or try again shortly.
Advertisements
Track Severe Weather on mobile